createdAt,value
2018-03-04T00:00:16.208Z,64.62
2018-03-04T00:02:17.202Z,71.47
2018-03-04T00:04:18.237Z,61.13
2018-03-04T00:06:19.478Z,61.35
2018-03-04T00:08:20.548Z,69.97
2018-03-04T00:10:22.570Z,69.43
2018-03-04T00:12:23.687Z,65.97
2018-03-04T00:14:24.807Z,76.78
2018-03-04T00:18:54.913Z,66.97
2018-03-04T00:23:25.019Z,56.60
2018-03-04T00:25:26.056Z,61.45
2018-03-04T00:27:29.970Z,65.05
2018-03-04T00:29:31.516Z,60.22
2018-03-04T00:31:47.370Z,70.70
2018-03-04T00:33:49.192Z,60.60
2018-03-04T00:35:50.696Z,74.57
2018-03-04T00:37:51.726Z,48.53
2018-03-04T00:39:52.787Z,63.47
2018-03-04T00:41:55.591Z,64.43
2018-03-04T00:44:00.746Z,60.42
2018-03-04T00:46:01.808Z,67.50
2018-03-04T00:48:03.629Z,55.85
2018-03-04T00:50:04.780Z,66.00
2018-03-04T00:52:05.879Z,65.37
2018-03-04T00:54:06.882Z,58.50
2018-03-04T00:56:08.628Z,69.78
2018-03-04T00:58:11.052Z,70.78
2018-03-04T01:00:16.597Z,55.00
2018-03-04T01:02:17.872Z,67.87
2018-03-04T01:04:18.902Z,67.18
2018-03-04T01:06:20.121Z,63.63
2018-03-04T01:08:21.100Z,66.22
2018-03-04T01:10:24.244Z,79.18
2018-03-04T01:19:52.652Z,61.92
2018-03-04T01:21:53.739Z,72.70
2018-03-04T01:23:54.728Z,67.18
2018-03-04T01:25:56.729Z,61.63
2018-03-04T01:30:25.460Z,76.00
2018-03-04T01:32:26.470Z,65.25
2018-03-04T01:36:55.539Z,73.80
2018-03-04T01:38:56.523Z,75.32
2018-03-04T01:40:57.493Z,65.93
2018-03-04T01:42:58.552Z,70.50
2018-03-04T01:44:59.552Z,64.03
2018-03-04T01:52:42.422Z,69.55
2018-03-04T01:54:43.866Z,64.50
2018-03-04T01:56:45.546Z,62.58
2018-03-04T01:58:47.180Z,66.82
2018-03-04T02:00:48.316Z,80.28
2018-03-04T02:02:49.308Z,83.00
2018-03-04T02:04:57.298Z,72.90
2018-03-04T02:06:58.691Z,62.53
2018-03-04T02:08:59.722Z,84.47
2018-03-04T02:11:00.734Z,73.65
2018-03-04T02:13:01.766Z,72.47
2018-03-04T02:15:02.820Z,74.22
2018-03-04T02:17:03.924Z,82.47
2018-03-04T02:19:27.196Z,70.00
2018-03-04T02:28:51.870Z,77.03
2018-03-04T02:30:53.629Z,73.82
2018-03-04T02:32:54.720Z,74.97
2018-03-04T02:34:55.697Z,74.18
2018-03-04T02:36:56.748Z,83.97
2018-03-04T02:41:26.458Z,87.85
2018-03-04T02:44:28.567Z,90.12
2018-03-04T02:48:57.996Z,87.32
2018-03-04T02:50:59.001Z,80.38
2018-03-04T02:55:29.102Z,76.12
2018-03-04T02:57:56.432Z,85.03
2018-03-04T02:59:58.194Z,67.28
2018-03-04T03:01:59.188Z,67.30
2018-03-04T03:04:00.162Z,78.15
2018-03-04T03:06:01.175Z,77.83
2018-03-04T03:08:02.192Z,74.85
2018-03-04T03:10:27.666Z,72.20
2018-03-04T03:12:28.734Z,77.07
2018-03-04T03:14:29.805Z,80.15
2018-03-04T03:16:31.474Z,77.12
2018-03-04T03:18:32.617Z,91.05
2018-03-04T03:20:33.668Z,94.20
2018-03-04T03:22:34.639Z,79.82
2018-03-04T03:24:35.662Z,79.63
2018-03-04T03:26:36.692Z,80.95
2018-03-04T03:28:37.659Z,76.35
2018-03-04T03:30:38.874Z,76.90
2018-03-04T03:32:40.108Z,81.20
2018-03-04T03:34:41.103Z,79.40
2018-03-04T03:36:42.106Z,84.20
2018-03-04T03:38:43.321Z,82.12
2018-03-04T03:43:13.709Z,89.55
2018-03-04T03:45:14.791Z,97.55
2018-03-04T03:47:15.881Z,94.72
2018-03-04T03:49:17.464Z,87.55
2018-03-04T03:51:19.193Z,90.15
2018-03-04T03:53:20.237Z,74.65
2018-03-04T03:57:58.924Z,79.43
2018-03-04T04:00:24.790Z,76.03
2018-03-04T04:02:36.532Z,74.80
2018-03-04T04:07:05.668Z,81.07
2018-03-04T04:09:06.666Z,97.88
2018-03-04T04:11:07.656Z,72.33
2018-03-04T04:13:08.665Z,95.53
2018-03-04T04:15:09.626Z,89.78
2018-03-04T04:17:10.663Z,81.40
2018-03-04T04:19:11.920Z,83.55
2018-03-04T04:21:26.916Z,89.18
2018-03-04T04:23:27.896Z,87.20
2018-03-04T04:25:28.892Z,109.03
2018-03-04T04:29:59.805Z,93.07
2018-03-04T04:34:29.494Z,95.85
2018-03-04T04:36:30.542Z,93.12
2018-03-04T04:38:31.561Z,82.20
2018-03-04T04:40:32.587Z,82.30
2018-03-04T04:42:33.544Z,85.00
2018-03-04T04:44:36.884Z,77.27
2018-03-04T04:46:37.989Z,95.25
2018-03-04T04:48:39.203Z,85.40
2018-03-04T04:50:40.283Z,78.87
2018-03-04T04:52:41.337Z,79.68
2018-03-04T04:54:56.609Z,85.72
2018-03-04T04:56:57.615Z,85.87
2018-03-04T05:01:36.926Z,66.50
2018-03-04T05:03:37.897Z,101.03
2018-03-04T05:05:38.899Z,90.40
2018-03-04T05:07:39.888Z,108.53
2018-03-04T05:14:37.712Z,92.10
2018-03-04T05:16:39.040Z,97.88
2018-03-04T05:18:40.064Z,106.05
2018-03-04T05:20:41.147Z,97.90
2018-03-04T05:22:42.128Z,80.93
2018-03-04T05:24:43.685Z,99.87
2018-03-04T05:26:44.863Z,99.32
2018-03-04T05:28:48.684Z,80.30
2018-03-04T05:30:49.877Z,107.07
2018-03-04T05:32:51.181Z,111.65
2018-03-04T05:34:52.231Z,103.85
2018-03-04T05:37:07.191Z,88.22
2018-03-04T05:39:08.169Z,105.93
2018-03-04T05:41:10.266Z,111.20
2018-03-04T05:43:11.273Z,114.20
2018-03-04T05:45:12.331Z,105.03
2018-03-04T05:47:38.067Z,106.20
2018-03-04T05:49:39.076Z,100.18
2018-03-04T05:51:40.129Z,116.40
2018-03-04T05:53:41.158Z,115.10
2018-03-04T05:56:06.295Z,114.55
2018-03-04T06:00:37.515Z,100.72
2018-03-04T06:02:38.528Z,90.30
2018-03-04T06:05:06.395Z,103.05
2018-03-04T06:07:07.551Z,98.22
2018-03-04T06:11:44.970Z,118.80
2018-03-04T06:13:45.955Z,120.55
2018-03-04T06:15:46.966Z,106.40
2018-03-04T06:17:48.049Z,125.10
2018-03-04T06:22:17.012Z,106.03
2018-03-04T06:26:47.223Z,103.62
2018-03-04T06:31:27.129Z,104.50
2018-03-04T06:33:28.646Z,105.90
2018-03-04T06:35:29.675Z,112.00
2018-03-04T06:37:30.687Z,79.00
2018-03-04T06:39:31.680Z,112.47
2018-03-04T06:41:46.606Z,110.28
2018-03-04T06:43:47.626Z,107.25
2018-03-04T06:45:48.800Z,88.47
2018-03-04T06:47:49.791Z,111.68
2018-03-04T06:49:50.818Z,113.83
2018-03-04T06:51:52.033Z,125.00
2018-03-04T06:53:53.066Z,72.87
2018-03-04T06:55:54.053Z,110.95
2018-03-04T06:57:55.079Z,94.13
2018-03-04T07:00:16.667Z,109.45
2018-03-04T07:02:17.692Z,115.35
2018-03-04T07:04:18.647Z,115.20
2018-03-04T07:08:46.494Z,110.10
2018-03-04T07:13:02.380Z,98.03
2018-03-04T07:15:17.214Z,108.65
2018-03-04T07:17:18.283Z,107.20
2018-03-04T07:19:19.332Z,123.03
2018-03-04T07:21:20.403Z,109.15
2018-03-04T07:23:21.372Z,124.32
2018-03-04T07:25:46.953Z,117.80
2018-03-04T07:30:15.864Z,106.65
2018-03-04T07:32:16.877Z,130.70
2018-03-04T07:34:18.145Z,107.25
2018-03-04T07:36:19.153Z,103.97
2018-03-04T07:38:46.778Z,104.80
2018-03-04T07:40:47.804Z,118.75
2018-03-04T07:42:48.857Z,110.30
2018-03-04T07:44:49.857Z,107.93
2018-03-04T07:47:16.866Z,115.12
2018-03-04T07:56:44.166Z,111.97
2018-03-04T07:58:45.364Z,104.95
2018-03-04T08:00:47.471Z,116.60
2018-03-04T08:05:17.775Z,100.82
2018-03-04T08:07:18.798Z,106.15
2018-03-04T08:09:34.456Z,122.25
2018-03-04T08:11:36.081Z,122.20
2018-03-04T08:13:47.017Z,121.10
2018-03-04T08:18:15.712Z,126.38
2018-03-04T08:22:46.963Z,114.90
2018-03-04T08:27:23.853Z,116.90
2018-03-04T08:31:56.609Z,102.25
2018-03-04T08:33:57.609Z,109.87
2018-03-04T08:35:58.988Z,116.32
2018-03-04T08:38:00.246Z,116.18
2018-03-04T08:40:01.578Z,115.22
2018-03-04T08:42:02.667Z,114.95
2018-03-04T08:44:03.724Z,109.68
2018-03-04T08:46:04.812Z,117.28
2018-03-04T08:48:05.891Z,125.40
2018-03-04T08:50:07.091Z,113.00
2018-03-04T08:52:08.125Z,115.93
2018-03-04T08:54:09.186Z,112.30
2018-03-04T08:56:10.176Z,116.55
2018-03-04T08:58:38.215Z,118.23
2018-03-04T09:00:39.210Z,120.22
2018-03-04T09:02:40.332Z,134.80
2018-03-04T09:07:18.108Z,113.62
2018-03-04T09:09:19.126Z,80.32
2018-03-04T09:11:31.267Z,128.50
2018-03-04T09:13:37.969Z,116.37
2018-03-04T09:15:38.971Z,127.30
2018-03-04T09:20:10.250Z,125.70
2018-03-04T09:22:11.384Z,124.78
2018-03-04T09:24:12.410Z,127.93
2018-03-04T09:26:13.485Z,117.25
2018-03-04T09:28:15.167Z,111.32
2018-03-04T09:30:16.180Z,127.10
2018-03-04T09:32:17.199Z,113.50
2018-03-04T09:34:18.313Z,130.20
2018-03-04T09:36:19.339Z,128.90
2018-03-04T09:38:21.151Z,128.25
2018-03-04T09:40:22.122Z,120.50
2018-03-04T09:42:23.087Z,120.03
2018-03-04T09:44:24.148Z,117.10
2018-03-04T09:46:25.207Z,136.90
2018-03-04T09:48:27.019Z,113.40
2018-03-04T09:50:28.115Z,128.23
2018-03-04T09:52:29.089Z,105.73
2018-03-04T09:54:30.229Z,121.87
2018-03-04T09:56:31.196Z,112.97
2018-03-04T09:58:32.805Z,126.80
2018-03-04T10:00:34.872Z,119.85
2018-03-04T10:02:35.975Z,120.07
2018-03-04T10:04:37.851Z,120.62
2018-03-04T10:06:38.877Z,115.93
2018-03-04T10:08:41.574Z,114.37
2018-03-04T10:10:42.634Z,122.53
2018-03-04T10:12:44.207Z,121.75
2018-03-04T10:14:45.247Z,122.23
2018-03-04T10:16:46.198Z,124.53
2018-03-04T10:18:47.793Z,106.43
2018-03-04T10:20:53.340Z,120.13
2018-03-04T10:22:55.100Z,121.18
2018-03-04T10:24:56.568Z,112.97
2018-03-04T10:26:58.089Z,113.30
2018-03-04T10:28:59.154Z,121.80
2018-03-04T10:31:00.100Z,119.78
2018-03-04T10:33:01.109Z,116.97
2018-03-04T10:35:02.123Z,122.20
2018-03-04T10:37:03.106Z,116.87
2018-03-04T10:39:04.097Z,111.63
2018-03-04T10:41:05.496Z,126.17
2018-03-04T10:43:06.594Z,119.53
2018-03-04T10:45:09.060Z,103.60
2018-03-04T10:47:10.911Z,124.35
2018-03-04T10:49:11.975Z,134.87
2018-03-04T10:51:17.646Z,130.70
2018-03-04T10:53:18.661Z,125.07
2018-03-04T10:55:19.655Z,130.20
2018-03-04T10:57:21.727Z,119.90
2018-03-04T10:59:22.696Z,137.20
2018-03-04T11:01:27.502Z,124.57
2018-03-04T11:03:28.471Z,133.10
2018-03-04T11:05:31.658Z,122.37
2018-03-04T11:07:33.476Z,133.77
2018-03-04T11:09:34.467Z,116.17
2018-03-04T11:11:36.279Z,110.93
2018-03-04T11:13:37.406Z,119.10
2018-03-04T11:15:39.333Z,118.57
2018-03-04T11:17:41.150Z,121.73
2018-03-04T11:19:46.848Z,101.43
2018-03-04T11:21:48.366Z,114.63
2018-03-04T11:26:11.691Z,124.07
2018-03-04T11:28:15.034Z,115.27
2018-03-04T11:32:54.041Z,121.23
2018-03-04T11:34:57.252Z,114.33
2018-03-04T11:36:58.394Z,129.73
2018-03-04T11:39:01.886Z,125.85
2018-03-04T11:41:08.511Z,131.73
2018-03-04T11:43:11.715Z,117.17
2018-03-04T11:45:29.948Z,101.30
2018-03-04T11:47:30.937Z,116.87
2018-03-04T11:49:52.485Z,112.20
2018-03-04T11:52:15.700Z,116.43
2018-03-04T11:54:18.895Z,106.57
2018-03-04T11:56:19.997Z,117.55
2018-03-04T11:58:21.000Z,109.63
2018-03-04T12:00:27.249Z,127.00
2018-03-04T12:02:28.354Z,114.97
2018-03-04T12:07:06.978Z,118.10
2018-03-04T12:16:42.136Z,122.53
2018-03-04T12:18:43.101Z,128.32
2018-03-04T12:20:54.481Z,121.03
2018-03-04T12:22:55.461Z,120.53
2018-03-04T12:24:56.432Z,121.63
2018-03-04T12:26:57.403Z,119.87
2018-03-04T12:29:11.609Z,113.93
2018-03-04T12:31:13.773Z,121.95
2018-03-04T12:33:14.741Z,113.73
2018-03-04T12:35:48.316Z,120.43
2018-03-04T12:37:49.261Z,115.73
2018-03-04T12:39:57.784Z,120.43
2018-03-04T12:47:27.090Z,109.23
2018-03-04T12:49:28.036Z,114.03
2018-03-04T12:59:25.012Z,117.40
2018-03-04T13:01:26.575Z,113.13
2018-03-04T13:03:29.090Z,113.97
2018-03-04T13:05:30.350Z,116.77
2018-03-04T13:07:31.924Z,129.90
2018-03-04T13:09:40.898Z,112.27
2018-03-04T13:11:45.320Z,117.18
2018-03-04T13:13:46.698Z,125.57
2018-03-04T13:15:47.704Z,115.53
2018-03-04T13:17:48.668Z,118.30
2018-03-04T13:20:02.011Z,119.25
2018-03-04T13:22:03.045Z,120.57
2018-03-04T13:24:04.007Z,118.77
2018-03-04T13:34:21.618Z,120.93
2018-03-04T13:36:24.405Z,122.03
2018-03-04T13:41:25.291Z,112.13
2018-03-04T13:43:26.306Z,124.53
2018-03-04T13:45:27.297Z,112.60
2018-03-04T13:47:28.254Z,110.77
2018-03-04T13:49:49.724Z,118.60
2018-03-04T13:57:07.639Z,106.90
2018-03-04T13:59:08.617Z,117.73
2018-03-04T14:03:47.116Z,110.65
2018-03-04T14:13:41.611Z,114.78
2018-03-04T14:31:21.789Z,104.00
2018-03-04T14:35:59.447Z,150.03
2018-03-04T14:38:00.396Z,117.47
2018-03-04T14:42:38.336Z,115.73
2018-03-04T14:44:42.852Z,108.70
2018-03-04T14:46:43.822Z,104.63
2018-03-04T14:48:44.762Z,102.83
2018-03-04T14:50:51.934Z,103.63
2018-03-04T14:55:21.934Z,99.53
2018-03-04T14:57:24.511Z,104.47
2018-03-04T14:59:25.677Z,100.37
2018-03-04T15:01:27.029Z,99.43
2018-03-04T15:03:28.072Z,98.13
2018-03-04T15:05:29.085Z,98.07
2018-03-04T15:07:52.155Z,91.93
2018-03-04T15:09:53.235Z,95.10
2018-03-04T15:11:54.946Z,101.60
2018-03-04T15:13:56.052Z,109.63
2018-03-04T15:15:57.067Z,105.43
2018-03-04T15:18:04.732Z,97.32
2018-03-04T15:20:09.859Z,100.73
2018-03-04T15:37:24.020Z,106.27
2018-03-04T15:39:25.088Z,100.03
2018-03-04T15:41:26.927Z,99.23
2018-03-04T15:43:27.999Z,110.00
2018-03-04T15:45:49.878Z,112.60
2018-03-04T15:47:50.868Z,116.67
2018-03-04T15:52:24.843Z,115.07
2018-03-04T15:54:43.384Z,111.70
2018-03-04T15:59:26.035Z,111.47
2018-03-04T16:03:40.447Z,114.30
2018-03-04T16:05:41.386Z,106.37
2018-03-04T16:07:42.338Z,105.40
2018-03-04T16:09:43.291Z,107.60
2018-03-04T16:12:06.183Z,105.43
2018-03-04T16:14:07.170Z,120.10
2018-03-04T16:16:08.441Z,113.40
2018-03-04T16:18:10.071Z,124.20
2018-03-04T16:20:11.543Z,121.90
2018-03-04T16:22:12.532Z,124.03
2018-03-04T16:24:13.504Z,131.17
2018-03-04T16:26:14.462Z,121.43
2018-03-04T16:28:15.452Z,118.53
2018-03-04T16:30:16.408Z,121.67
2018-03-04T16:32:17.391Z,111.57
2018-03-04T16:36:46.473Z,105.57
2018-03-04T16:38:57.681Z,105.93
2018-03-04T16:40:59.278Z,126.62
2018-03-04T16:43:20.512Z,119.10
2018-03-04T16:45:21.499Z,124.03
2018-03-04T16:47:22.532Z,114.83
2018-03-04T16:49:49.269Z,117.90
2018-03-04T16:51:50.229Z,114.97
2018-03-04T16:53:52.370Z,132.12
2018-03-04T16:55:53.424Z,113.43
2018-03-04T16:58:22.195Z,122.33
2018-03-04T17:03:00.732Z,109.72
2018-03-04T17:05:12.460Z,115.27
2018-03-04T17:13:23.828Z,117.25
2018-03-04T17:18:06.752Z,106.10
2018-03-04T17:20:07.751Z,94.97
2018-03-04T17:22:12.932Z,111.37
2018-03-04T17:24:14.001Z,112.13
2018-03-04T17:26:15.077Z,119.72
2018-03-04T17:28:16.213Z,117.93
2018-03-04T17:30:36.079Z,110.30
2018-03-04T17:32:44.151Z,104.23
2018-03-04T17:34:48.468Z,98.00
2018-03-04T17:37:05.129Z,114.57
2018-03-04T17:39:06.185Z,110.25
2018-03-04T17:41:07.240Z,103.23
2018-03-04T17:43:08.220Z,106.87
2018-03-04T17:45:09.985Z,96.70
2018-03-04T17:47:11.041Z,107.33
2018-03-04T17:49:17.046Z,120.90
2018-03-04T17:51:31.538Z,100.60
2018-03-04T17:53:32.802Z,111.50
2018-03-04T17:55:33.777Z,107.83
2018-03-04T17:57:36.636Z,117.65
2018-03-04T17:59:37.702Z,109.53
2018-03-04T18:01:50.733Z,108.43
2018-03-04T18:03:52.857Z,100.93
2018-03-04T18:05:53.876Z,104.50
2018-03-04T18:07:54.818Z,103.80
2018-03-04T18:09:55.769Z,97.07
2018-03-04T18:11:56.752Z,100.63
2018-03-04T18:13:57.722Z,104.33
2018-03-04T18:16:00.205Z,107.15
2018-03-04T18:18:07.797Z,107.10
2018-03-04T18:20:09.668Z,103.47
2018-03-04T18:22:25.249Z,99.47
2018-03-04T18:24:26.451Z,89.43
2018-03-04T18:26:27.385Z,112.78
2018-03-04T18:28:28.324Z,106.37
2018-03-04T18:30:35.741Z,107.45
2018-03-04T18:32:36.998Z,101.17
2018-03-04T18:34:38.086Z,91.43
2018-03-04T18:39:07.167Z,106.40
2018-03-04T18:41:16.244Z,104.53
2018-03-04T18:45:44.630Z,105.10
2018-03-04T18:50:14.542Z,117.87
2018-03-04T18:54:43.422Z,115.22
2018-03-04T18:56:46.216Z,109.10
2018-03-04T19:01:28.053Z,90.57
2018-03-04T19:03:29.149Z,107.00
2018-03-04T19:05:31.611Z,111.90
2018-03-04T19:07:32.672Z,100.47
2018-03-04T19:10:01.228Z,108.77
2018-03-04T19:12:02.221Z,101.85
2018-03-04T19:14:06.917Z,109.97
2018-03-04T19:16:18.982Z,98.00
2018-03-04T19:18:20.239Z,96.17
2018-03-04T19:20:21.254Z,94.30
2018-03-04T19:22:31.796Z,100.40
2018-03-04T19:24:45.772Z,83.10
2018-03-04T19:26:57.595Z,89.90
2018-03-04T19:28:59.246Z,84.17
2018-03-04T19:31:00.657Z,82.80
2018-03-04T19:33:01.850Z,94.67
2018-03-04T19:35:07.232Z,89.53
2018-03-04T19:37:09.727Z,84.60
2018-03-04T19:39:13.960Z,83.43
2018-03-04T19:41:15.669Z,95.20
2018-03-04T19:43:23.168Z,84.70
2018-03-04T19:45:24.164Z,92.20
2018-03-04T19:47:25.192Z,79.60
2018-03-04T19:49:26.257Z,84.93
2018-03-04T19:51:28.211Z,78.27
2018-03-04T19:53:29.281Z,78.37
2018-03-04T19:55:45.324Z,77.67
2018-03-04T20:00:18.173Z,73.97
2018-03-04T20:02:27.819Z,72.27
2018-03-04T20:04:31.658Z,81.93
2018-03-04T20:09:12.933Z,81.78
2018-03-04T20:11:28.359Z,81.57
2018-03-04T20:13:29.333Z,82.83
2018-03-04T20:15:30.345Z,81.03
2018-03-04T20:17:34.176Z,84.23
2018-03-04T20:22:11.165Z,78.40
2018-03-04T20:26:40.353Z,85.90
2018-03-04T20:28:41.400Z,84.87
2018-03-04T20:30:42.425Z,82.10
2018-03-04T20:32:43.417Z,94.30
2018-03-04T20:34:57.813Z,81.53
2018-03-04T20:36:58.956Z,80.27
2018-03-04T20:38:59.899Z,83.80
2018-03-04T20:41:00.986Z,84.60
2018-03-04T20:43:02.043Z,77.27
2018-03-04T20:45:03.158Z,84.40
2018-03-04T20:47:05.016Z,90.83
2018-03-04T20:49:06.170Z,79.53
2018-03-04T20:51:27.682Z,89.32
2018-03-04T20:53:28.688Z,80.13
2018-03-04T20:55:33.169Z,84.07
2018-03-04T20:57:34.144Z,84.10
2018-03-04T21:02:18.861Z,105.20
2018-03-04T21:04:19.835Z,89.87
2018-03-04T21:06:20.807Z,92.57
2018-03-04T21:08:21.823Z,85.73
2018-03-04T21:12:38.088Z,84.47
2018-03-04T21:14:39.066Z,85.90
2018-03-04T21:18:59.147Z,95.87
2018-03-04T21:21:00.112Z,93.18
2018-03-04T21:23:01.261Z,96.97
2018-03-04T21:25:02.389Z,103.57
2018-03-04T21:27:07.628Z,87.80
2018-03-04T21:32:09.781Z,100.68
2018-03-04T21:34:11.629Z,103.20
2018-03-04T21:36:12.768Z,76.33
2018-03-04T21:38:14.724Z,90.70
2018-03-04T21:40:16.252Z,97.47
2018-03-04T21:42:17.472Z,90.57
2018-03-04T21:44:18.500Z,87.65
2018-03-04T21:46:19.655Z,98.50
2018-03-04T21:48:20.905Z,86.00
2018-03-04T21:55:22.515Z,96.03
2018-03-04T21:57:23.529Z,90.60
2018-03-04T21:59:46.013Z,91.57
2018-03-04T22:01:47.313Z,90.33
2018-03-04T22:03:51.351Z,80.70
2018-03-04T22:05:54.528Z,84.57
2018-03-04T22:08:21.832Z,81.97
2018-03-04T22:10:23.711Z,83.50
2018-03-04T22:12:24.857Z,87.30
2018-03-04T22:17:23.069Z,87.73
2018-03-04T22:24:39.442Z,75.33
2018-03-04T22:26:40.574Z,88.30
2018-03-04T22:28:41.727Z,84.40
2018-03-04T22:30:42.797Z,75.30
2018-03-04T22:32:43.820Z,88.80
2018-03-04T22:37:27.348Z,86.82
2018-03-04T22:39:37.298Z,82.20
2018-03-04T22:43:52.609Z,89.07
2018-03-04T22:48:21.654Z,86.13
2018-03-04T22:50:37.667Z,88.90
2018-03-04T22:52:39.189Z,95.93
2018-03-04T22:54:47.608Z,86.13
2018-03-04T22:57:04.279Z,101.97
2018-03-04T22:59:05.631Z,101.90
2018-03-04T23:01:15.767Z,108.97
2018-03-04T23:03:19.503Z,100.33
2018-03-04T23:05:20.721Z,90.90
2018-03-04T23:07:26.181Z,90.50
2018-03-04T23:09:27.372Z,94.03
2018-03-04T23:11:38.302Z,83.87
2018-03-04T23:13:39.364Z,96.80
2018-03-04T23:15:40.406Z,106.45
2018-03-04T23:17:55.177Z,97.30
2018-03-04T23:20:01.994Z,94.77
2018-03-04T23:22:04.329Z,107.23
2018-03-04T23:24:05.409Z,96.40
2018-03-04T23:26:06.489Z,100.93
2018-03-04T23:28:07.498Z,101.63
2018-03-04T23:30:08.708Z,112.30
2018-03-04T23:32:38.340Z,112.37
2018-03-04T23:42:07.649Z,111.33
2018-03-04T23:54:09.975Z,110.53
2018-03-04T23:56:11.192Z,115.63
2018-03-04T23:58:20.526Z,114.70
